METAR rapporten vliegvelden

   
EHVK - Volkel Rnlafb, Netherlands
Afstand tot: ZW 18 km
Gewijzigd: 25-11-2020 00:25
Bewolking  
Bewolking  
   Wind: ZZO 13 km/h
Wind: ZZO 13 km/h
Temperatuur: 5°C
Voelt als: 2°C
Dauwpunt: 3°C
Vochtigheid: 87%
Barometer: 1017 hPa
Bewolking: Bewolking
Bewolking: Bewolking 17000 ft
EHVK 242325Z AUTO 15007KT 130V190 //// // OVC170 05/03 Q1017 RE//
EDLV - Niederrhein, Germany
Afstand tot: ZO 25 km
Gewijzigd: 23-11-2020 23:50
Verouderd
Grotendeels bewolkt  
Grotendeels bewolkt  
   Wind: Zuiden 11.1 km/h
Wind: Zuiden 11.1 km/h
Temperatuur: 7°C
Voelt als: 5°C
Dauwpunt: 5°C
Vochtigheid: 87%
Barometer: 1027 hPa
Bewolking: Grotendeels bewolkt
Zicht: meer dan 10 km
Bewolking: Grotendeels bewolkt 4900 ft
EDLV 232250Z 17006KT 9999 BKN049 07/05 Q1027
EHDL - Deelen Rnlafb, Netherlands
Afstand tot: N 35 km
Gewijzigd: 25-11-2020 00:25
Bewolking  
Bewolking  
   Wind: ZZO 16.7 km/h
Wind: ZZO 16.7 km/h
Temperatuur: 5°C
Voelt als: 2°C
Dauwpunt: 4°C
Vochtigheid: 93%
Barometer: 1017 hPa
Bewolking: Bewolking
Zicht: meer dan 10 km
Bewolking: Bewolking 18000 ft
EHDL 242325Z AUTO 16009KT 110V220 9999 OVC180 05/04 Q1017 BLU
EHEH - Eindhoven Rnlafb, Netherlands
Afstand tot: ZW 48 km
Gewijzigd: 25-11-2020 00:25
Bewolking  
Bewolking  
   Wind: ZZO 11.1 km/h
Wind: ZZO 11.1 km/h
Temperatuur: 5°C
Voelt als: 2°C
Dauwpunt: 3°C
Vochtigheid: 87%
Barometer: 1017 hPa
Bewolking: Bewolking
Zicht: meer dan 10 km
Bewolking: Bewolking 19000 ft
EHEH 242325Z AUTO 15006KT 9999 OVC190 05/03 Q1017 BLU
EHGR - Gilze-Rijen Rnla, Netherlands
Afstand tot: WZW 70 km
Gewijzigd: 25-11-2020 00:25
Bewolking  
Bewolking  
   Wind: Zuiden 16.7 km/h
Wind: Zuiden 16.7 km/h
Temperatuur: 6°C
Voelt als: 3°C
Dauwpunt: 4°C
Vochtigheid: 87%
Barometer: 1016 hPa
Bewolking: Bewolking
Zicht: meer dan 10 km
Bewolking: Bewolking 18000 ft
EHGR 242325Z AUTO 17009KT 120V210 9999 OVC180 06/04 Q1016 BLU
EBBL - Kleine-Brogel(Ba, Belgium
Afstand tot: ZZW 71 km
Gewijzigd: 24-11-2020 23:55
Grotendeels bewolkt  
Grotendeels bewolkt  
   Wind: varieert 3.7 km/h
Wind: varieert 3.7 km/h
Temperatuur: 4°C
Dauwpunt: 3°C
Vochtigheid: 93%
Barometer: 1017 hPa
Bewolking: Grotendeels bewolkt
Zicht: meer dan 10 km
Bewolking: Grotendeels bewolkt 21000 ft
EBBL 242255Z AUTO VRB02KT 9999 BKN210/// 04/03 Q1017 BLU

Script ontwikkeld door  Saratoga-weather.org Aangepast voor de template door  Weerstation Leuven

U vindt ons ook hier:

Het Weer Aktueel

European Weather Network

WeatherCloud

Weather Underground

Benelux Weer Netwerk

Apparatuur in gebruik:

Weerstation
Davis VP2

Weerprogramma
consoleWD

Weercomputer
Raspberry

Webleverancier
Stef van Bakel koeltechniek

Davis VP2

consoleWD

Raspberry

Stef van Bakel koeltechniek